sensor_id;sensor_type;location;lat;lon;timestamp;pressure;altitude;pressure_sealevel;temperature;humidity
74242;BME280;62599;49.146;10.426;2023-10-19T00:02:00;94302.41;;;7.68;100.00
74242;BME280;62599;49.146;10.426;2023-10-19T00:04:25;94294.72;;;7.67;100.00
74242;BME280;62599;49.146;10.426;2023-10-19T00:06:52;94290.47;;;7.66;100.00
74242;BME280;62599;49.146;10.426;2023-10-19T00:09:18;94278.28;;;7.68;100.00
74242;BME280;62599;49.146;10.426;2023-10-19T00:11:45;94280.19;;;7.68;100.00
74242;BME280;62599;49.146;10.426;2023-10-19T00:14:12;94290.22;;;7.71;100.00
74242;BME280;62599;49.146;10.426;2023-10-19T00:16:44;94271.78;;;7.69;100.00
74242;BME280;62599;49.146;10.426;2023-10-19T00:19:18;94277.22;;;7.73;100.00
74242;BME280;62599;49.146;10.426;2023-10-19T00:21:45;94266.34;;;7.66;100.00
74242;BME280;62599;49.146;10.426;2023-10-19T00:24:21;94277.66;;;7.75;100.00
74242;BME280;62599;49.146;10.426;2023-10-19T00:26:48;94275.44;;;7.77;100.00
74242;BME280;62599;49.146;10.426;2023-10-19T00:29:17;94266.19;;;7.75;100.00
74242;BME280;62599;49.146;10.426;2023-10-19T00:32:00;94264.28;;;7.75;100.00
74242;BME280;62599;49.146;10.426;2023-10-19T00:34:27;94264.28;;;7.75;100.00
74242;BME280;62599;49.146;10.426;2023-10-19T00:36:54;94261.59;;;7.75;100.00
74242;BME280;62599;49.146;10.426;2023-10-19T00:39:22;94262.72;;;7.74;100.00
74242;BME280;62599;49.146;10.426;2023-10-19T00:41:48;94257.38;;;7.74;100.00
74242;BME280;62599;49.146;10.426;2023-10-19T00:44:14;94271.19;;;7.76;100.00
74242;BME280;62599;49.146;10.426;2023-10-19T00:46:56;94259.69;;;7.76;100.00
74242;BME280;62599;49.146;10.426;2023-10-19T00:49:39;94258.91;;;7.75;100.00
74242;BME280;62599;49.146;10.426;2023-10-19T00:52:06;94251.03;;;7.82;100.00
74242;BME280;62599;49.146;10.426;2023-10-19T00:54:46;94249.03;;;7.79;100.00
74242;BME280;62599;49.146;10.426;2023-10-19T00:57:15;94247.56;;;7.82;100.00
74242;BME280;62599;49.146;10.426;2023-10-19T00:59:45;94244.53;;;7.83;100.00
74242;BME280;62599;49.146;10.426;2023-10-19T01:02:15;94233.41;;;7.81;100.00
74242;BME280;62599;49.146;10.426;2023-10-19T01:04:51;94233.56;;;7.88;100.00
74242;BME280;62599;49.146;10.426;2023-10-19T01:07:31;94227.06;;;7.89;100.00
74242;BME280;62599;49.146;10.426;2023-10-19T01:10:01;94231.72;;;7.92;100.00
74242;BME280;62599;49.146;10.426;2023-10-19T01:12:46;94223.94;;;7.87;100.00
74242;BME280;62599;49.146;10.426;2023-10-19T01:15:16;94228.91;;;7.85;100.00
74242;BME280;62599;49.146;10.426;2023-10-19T01:17:47;94224.66;;;7.84;100.00
74242;BME280;62599;49.146;10.426;2023-10-19T01:20:26;94216.19;;;7.82;100.00
74242;BME280;62599;49.146;10.426;2023-10-19T01:22:57;94216.19;;;7.82;100.00
74242;BME280;62599;49.146;10.426;2023-10-19T01:25:54;94215.06;;;7.83;100.00
74242;BME280;62599;49.146;10.426;2023-10-19T01:30:54;94205.91;;;7.84;100.00
74242;BME280;62599;49.146;10.426;2023-10-19T01:33:20;94196.72;;;7.85;100.00
74242;BME280;62599;49.146;10.426;2023-10-19T01:35:47;94205.53;;;7.86;100.00
74242;BME280;62599;49.146;10.426;2023-10-19T01:38:31;94207.84;;;7.87;100.00
74242;BME280;62599;49.146;10.426;2023-10-19T01:40:57;94197.22;;;7.91;100.00
74242;BME280;62599;49.146;10.426;2023-10-19T01:43:28;94193.00;;;7.90;100.00
74242;BME280;62599;49.146;10.426;2023-10-19T01:45:59;94187.25;;;7.91;100.00
74242;BME280;62599;49.146;10.426;2023-10-19T01:48:36;94194.28;;;7.96;100.00
74242;BME280;62599;49.146;10.426;2023-10-19T01:51:04;94188.84;;;7.92;100.00
74242;BME280;62599;49.146;10.426;2023-10-19T01:53:33;94180.09;;;7.95;100.00
74242;BME280;62599;49.146;10.426;2023-10-19T01:56:02;94181.91;;;7.91;100.00
74242;BME280;62599;49.146;10.426;2023-10-19T01:58:31;94186.84;;;7.89;100.00
74242;BME280;62599;49.146;10.426;2023-10-19T02:03:51;94168.88;;;7.90;100.00
74242;BME280;62599;49.146;10.426;2023-10-19T02:06:20;94173.09;;;7.91;100.00
74242;BME280;62599;49.146;10.426;2023-10-19T02:11:23;94170.06;;;7.92;100.00
74242;BME280;62599;49.146;10.426;2023-10-19T02:13:49;94164.28;;;7.90;100.00
74242;BME280;62599;49.146;10.426;2023-10-19T02:16:16;94156.59;;;7.89;100.00
74242;BME280;62599;49.146;10.426;2023-10-19T02:18:45;94170.41;;;7.91;100.00
74242;BME280;62599;49.146;10.426;2023-10-19T02:21:10;94162.72;;;7.89;100.00
74242;BME280;62599;49.146;10.426;2023-10-19T02:23:40;94175.50;;;7.96;100.00
74242;BME280;62599;49.146;10.426;2023-10-19T02:26:09;94175.00;;;7.90;100.00
74242;BME280;62599;49.146;10.426;2023-10-19T02:28:39;94164.41;;;7.97;100.00
74242;BME280;62599;49.146;10.426;2023-10-19T02:31:07;94158.22;;;7.93;100.00
74242;BME280;62599;49.146;10.426;2023-10-19T02:33:46;94164.97;;;7.87;100.00
74242;BME280;62599;49.146;10.426;2023-10-19T02:36:14;94161.19;;;7.88;100.00
74242;BME280;62599;49.146;10.426;2023-10-19T02:38:42;94145.88;;;7.89;100.00
74242;BME280;62599;49.146;10.426;2023-10-19T02:41:09;94152.78;;;7.90;100.00
74242;BME280;62599;49.146;10.426;2023-10-19T02:43:36;94153.28;;;7.95;100.00
74242;BME280;62599;49.146;10.426;2023-10-19T02:46:02;94146.78;;;7.96;100.00
74242;BME280;62599;49.146;10.426;2023-10-19T02:48:29;94133.03;;;7.98;100.00
74242;BME280;62599;49.146;10.426;2023-10-19T02:50:54;94143.41;;;8.00;100.00
74242;BME280;62599;49.146;10.426;2023-10-19T02:53:19;94136.91;;;8.01;100.00
74242;BME280;62599;49.146;10.426;2023-10-19T02:55:45;94136.13;;;8.00;100.00
74242;BME280;62599;49.146;10.426;2023-10-19T02:58:10;94137.53;;;7.94;100.00
74242;BME280;62599;49.146;10.426;2023-10-19T03:00:38;94139.88;;;7.95;100.00
74242;BME280;62599;49.146;10.426;2023-10-19T03:03:05;94132.94;;;7.94;100.00
74242;BME280;62599;49.146;10.426;2023-10-19T03:05:31;94124.50;;;7.92;100.00
74242;BME280;62599;49.146;10.426;2023-10-19T03:08:00;94127.53;;;7.91;100.00
74242;BME280;62599;49.146;10.426;2023-10-19T03:10:31;94117.94;;;7.90;100.00
74242;BME280;62599;49.146;10.426;2023-10-19T03:13:07;94123.28;;;7.90;100.00
74242;BME280;62599;49.146;10.426;2023-10-19T03:15:32;94116.03;;;7.90;100.00
74242;BME280;62599;49.146;10.426;2023-10-19T03:17:58;94114.47;;;7.89;100.00
74242;BME280;62599;49.146;10.426;2023-10-19T03:20:31;94116.38;;;7.89;100.00
74242;BME280;62599;49.146;10.426;2023-10-19T03:22:59;94112.56;;;7.90;100.00
74242;BME280;62599;49.146;10.426;2023-10-19T03:25:26;94127.44;;;7.87;100.00
74242;BME280;62599;49.146;10.426;2023-10-19T03:28:10;94126.75;;;7.90;100.00
74242;BME280;62599;49.146;10.426;2023-10-19T03:30:41;94125.19;;;7.89;100.00
74242;BME280;62599;49.146;10.426;2023-10-19T03:33:09;94110.66;;;7.90;100.00
74242;BME280;62599;49.146;10.426;2023-10-19T03:35:39;94103.41;;;7.91;100.00
74242;BME280;62599;49.146;10.426;2023-10-19T03:38:10;94113.72;;;7.89;100.00
74242;BME280;62599;49.146;10.426;2023-10-19T03:40:43;94110.25;;;7.88;100.00
74242;BME280;62599;49.146;10.426;2023-10-19T03:43:24;94084.28;;;7.73;100.00
74242;BME280;62599;49.146;10.426;2023-10-19T03:45:55;94092.75;;;7.75;100.00
74242;BME280;62599;49.146;10.426;2023-10-19T03:48:24;94091.34;;;7.81;100.00
74242;BME280;62599;49.146;10.426;2023-10-19T03:50:53;94079.66;;;7.70;100.00
74242;BME280;62599;49.146;10.426;2023-10-19T03:53:22;94070.88;;;7.73;100.00
74242;BME280;62599;49.146;10.426;2023-10-19T03:55:50;94070.75;;;7.85;100.00
74242;BME280;62599;49.146;10.426;2023-10-19T03:58:16;94071.88;;;7.84;100.00
74242;BME280;62599;49.146;10.426;2023-10-19T04:00:44;94071.44;;;7.82;100.00
74242;BME280;62599;49.146;10.426;2023-10-19T04:03:10;94067.63;;;7.83;100.00
74242;BME280;62599;49.146;10.426;2023-10-19T04:05:36;94065.38;;;7.85;100.00
74242;BME280;62599;49.146;10.426;2023-10-19T04:08:05;94063.56;;;7.89;100.00
74242;BME280;62599;49.146;10.426;2023-10-19T04:10:38;94052.81;;;7.89;100.00
74242;BME280;62599;49.146;10.426;2023-10-19T04:13:04;94056.97;;;7.87;100.00
74242;BME280;62599;49.146;10.426;2023-10-19T04:15:34;94066.16;;;7.86;100.00
74242;BME280;62599;49.146;10.426;2023-10-19T04:18:01;94063.47;;;7.86;100.00
74242;BME280;62599;49.146;10.426;2023-10-19T04:20:27;94048.16;;;7.86;100.00
74242;BME280;62599;49.146;10.426;2023-10-19T04:23:07;94053.75;;;7.78;100.00
74242;BME280;62599;49.146;10.426;2023-10-19T04:25:36;94049.72;;;7.68;100.00
74242;BME280;62599;49.146;10.426;2023-10-19T04:28:04;94044.94;;;7.58;100.00
74242;BME280;62599;49.146;10.426;2023-10-19T04:30:30;94049.81;;;7.52;100.00
74242;BME280;62599;49.146;10.426;2023-10-19T04:32:58;94037.38;;;7.44;100.00
74242;BME280;62599;49.146;10.426;2023-10-19T04:35:24;94033.00;;;7.36;100.00
74242;BME280;62599;49.146;10.426;2023-10-19T04:37:55;94038.31;;;7.32;100.00
74242;BME280;62599;49.146;10.426;2023-10-19T04:40:23;94035.22;;;7.30;100.00
74242;BME280;62599;49.146;10.426;2023-10-19T04:42:52;94032.03;;;7.24;100.00
74242;BME280;62599;49.146;10.426;2023-10-19T04:45:18;94030.31;;;7.16;100.00
74242;BME280;62599;49.146;10.426;2023-10-19T04:47:44;94022.47;;;7.08;100.00
74242;BME280;62599;49.146;10.426;2023-10-19T04:50:12;94025.59;;;7.10;100.00
74242;BME280;62599;49.146;10.426;2023-10-19T04:52:38;94030.94;;;7.10;100.00
74242;BME280;62599;49.146;10.426;2023-10-19T04:55:05;94042.03;;;7.08;100.00
74242;BME280;62599;49.146;10.426;2023-10-19T04:57:30;94040.81;;;7.06;100.00
74242;BME280;62599;49.146;10.426;2023-10-19T04:59:56;94046.84;;;7.03;100.00
74242;BME280;62599;49.146;10.426;2023-10-19T05:02:29;94031.94;;;7.02;100.00
74242;BME280;62599;49.146;10.426;2023-10-19T05:04:57;94033.03;;;7.00;100.00
74242;BME280;62599;49.146;10.426;2023-10-19T05:07:22;94026.91;;;7.00;100.00
74242;BME280;62599;49.146;10.426;2023-10-19T05:09:50;94024.59;;;6.98;100.00
74242;BME280;62599;49.146;10.426;2023-10-19T05:12:16;94019.94;;;6.95;100.00
74242;BME280;62599;49.146;10.426;2023-10-19T05:14:42;94015.56;;;6.87;100.00
74242;BME280;62599;49.146;10.426;2023-10-19T05:17:08;94022.88;;;6.90;100.00
74242;BME280;62599;49.146;10.426;2023-10-19T05:19:38;94018.91;;;6.84;100.00
74242;BME280;62599;49.146;10.426;2023-10-19T05:22:05;94012.88;;;6.87;100.00
74242;BME280;62599;49.146;10.426;2023-10-19T05:24:31;94017.38;;;6.83;100.00
74242;BME280;62599;49.146;10.426;2023-10-19T05:26:57;94025.75;;;6.82;100.00
74242;BME280;62599;49.146;10.426;2023-10-19T05:29:23;94015.41;;;6.80;100.00
74242;BME280;62599;49.146;10.426;2023-10-19T05:31:52;94021.88;;;6.79;100.00
74242;BME280;62599;49.146;10.426;2023-10-19T05:34:23;94013.94;;;6.83;100.00
74242;BME280;62599;49.146;10.426;2023-10-19T05:36:49;94017.31;;;6.80;100.00
74242;BME280;62599;49.146;10.426;2023-10-19T05:39:16;94011.19;;;6.79;100.00
74242;BME280;62599;49.146;10.426;2023-10-19T05:41:44;94011.50;;;6.78;100.00
74242;BME280;62599;49.146;10.426;2023-10-19T05:44:12;94010.28;;;6.75;100.00
74242;BME280;62599;49.146;10.426;2023-10-19T05:46:37;94004.16;;;6.74;100.00
74242;BME280;62599;49.146;10.426;2023-10-19T05:49:05;94004.38;;;6.66;100.00
74242;BME280;62599;49.146;10.426;2023-10-19T05:51:34;94008.59;;;6.67;100.00
74242;BME280;62599;49.146;10.426;2023-10-19T05:53:59;94020.84;;;6.68;100.00
74242;BME280;62599;49.146;10.426;2023-10-19T05:56:31;94018.88;;;6.65;100.00
74242;BME280;62599;49.146;10.426;2023-10-19T05:58:59;94028.44;;;6.66;100.00
74242;BME280;62599;49.146;10.426;2023-10-19T06:01:26;94021.88;;;6.63;100.00
74242;BME280;62599;49.146;10.426;2023-10-19T06:03:51;94033.44;;;6.67;100.00
74242;BME280;62599;49.146;10.426;2023-10-19T06:06:18;94039.22;;;6.69;100.00
74242;BME280;62599;49.146;10.426;2023-10-19T06:08:44;94032.34;;;6.68;100.00
74242;BME280;62599;49.146;10.426;2023-10-19T06:11:10;94026.63;;;6.70;100.00
74242;BME280;62599;49.146;10.426;2023-10-19T06:13:35;94026.34;;;6.75;100.00
74242;BME280;62599;49.146;10.426;2023-10-19T06:16:01;94025.66;;;6.78;100.00
74242;BME280;62599;49.146;10.426;2023-10-19T06:18:26;94026.50;;;6.82;100.00
74242;BME280;62599;49.146;10.426;2023-10-19T06:20:51;94030.84;;;6.87;100.00
74242;BME280;62599;49.146;10.426;2023-10-19T06:23:20;94027.88;;;6.92;100.00
74242;BME280;62599;49.146;10.426;2023-10-19T06:25:45;94031.50;;;6.99;100.00
74242;BME280;62599;49.146;10.426;2023-10-19T06:28:10;94032.41;;;7.07;100.00
74242;BME280;62599;49.146;10.426;2023-10-19T06:30:39;94031.94;;;7.21;100.00
74242;BME280;62599;49.146;10.426;2023-10-19T06:33:05;94025.97;;;7.28;100.00
74242;BME280;62599;49.146;10.426;2023-10-19T06:35:32;94033.94;;;7.43;100.00
74242;BME280;62599;49.146;10.426;2023-10-19T06:37:58;94040.28;;;7.55;100.00
74242;BME280;62599;49.146;10.426;2023-10-19T06:40:27;94039.31;;;7.63;100.00
74242;BME280;62599;49.146;10.426;2023-10-19T06:42:56;94034.09;;;7.70;100.00
74242;BME280;62599;49.146;10.426;2023-10-19T06:45:22;94035.41;;;7.80;100.00
74242;BME280;62599;49.146;10.426;2023-10-19T06:47:49;94033.94;;;7.82;100.00
74242;BME280;62599;49.146;10.426;2023-10-19T06:50:19;94042.44;;;7.88;100.00
74242;BME280;62599;49.146;10.426;2023-10-19T06:52:48;94039.50;;;7.93;100.00
74242;BME280;62599;49.146;10.426;2023-10-19T06:55:16;94037.28;;;7.99;100.00
74242;BME280;62599;49.146;10.426;2023-10-19T06:57:44;94044.63;;;8.02;100.00
74242;BME280;62599;49.146;10.426;2023-10-19T07:00:14;94039.69;;;8.04;100.00
74242;BME280;62599;49.146;10.426;2023-10-19T07:02:48;94033.44;;;7.96;100.00
74242;BME280;62599;49.146;10.426;2023-10-19T07:05:14;94024.03;;;7.86;100.00
74242;BME280;62599;49.146;10.426;2023-10-19T07:07:44;94028.56;;;7.82;100.00
74242;BME280;62599;49.146;10.426;2023-10-19T07:10:12;94030.88;;;7.84;100.00
74242;BME280;62599;49.146;10.426;2023-10-19T07:12:39;94021.38;;;7.86;100.00
74242;BME280;62599;49.146;10.426;2023-10-19T07:15:07;94027.28;;;7.95;100.00
74242;BME280;62599;49.146;10.426;2023-10-19T07:17:36;94022.13;;;8.06;100.00
74242;BME280;62599;49.146;10.426;2023-10-19T07:20:04;94015.44;;;8.19;100.00
74242;BME280;62599;49.146;10.426;2023-10-19T07:22:35;94018.78;;;8.36;100.00
74242;BME280;62599;49.146;10.426;2023-10-19T07:25:05;94007.50;;;8.46;100.00
74242;BME280;62599;49.146;10.426;2023-10-19T07:27:31;94008.84;;;8.59;100.00
74242;BME280;62599;49.146;10.426;2023-10-19T07:29:56;94011.28;;;8.68;100.00
74242;BME280;62599;49.146;10.426;2023-10-19T07:32:22;94014.78;;;8.72;100.00
74242;BME280;62599;49.146;10.426;2023-10-19T07:34:47;94014.91;;;8.79;100.00
74242;BME280;62599;49.146;10.426;2023-10-19T07:37:13;94008.13;;;8.89;100.00
74242;BME280;62599;49.146;10.426;2023-10-19T07:39:47;94020.63;;;9.04;100.00
74242;BME280;62599;49.146;10.426;2023-10-19T07:42:14;94027.69;;;9.16;100.00
74242;BME280;62599;49.146;10.426;2023-10-19T07:44:40;94023.97;;;9.24;100.00
74242;BME280;62599;49.146;10.426;2023-10-19T07:47:05;94008.25;;;9.26;100.00
74242;BME280;62599;49.146;10.426;2023-10-19T07:49:32;94017.88;;;9.27;100.00
74242;BME280;62599;49.146;10.426;2023-10-19T07:51:57;94022.00;;;9.21;100.00
74242;BME280;62599;49.146;10.426;2023-10-19T07:54:24;94028.88;;;9.19;100.00
74242;BME280;62599;49.146;10.426;2023-10-19T07:56:49;94021.56;;;9.15;100.00
74242;BME280;62599;49.146;10.426;2023-10-19T07:59:15;94032.34;;;9.19;100.00
74242;BME280;62599;49.146;10.426;2023-10-19T08:01:44;94024.69;;;9.21;100.00
74242;BME280;62599;49.146;10.426;2023-10-19T08:04:09;94024.06;;;9.31;100.00
74242;BME280;62599;49.146;10.426;2023-10-19T08:06:37;94024.09;;;9.35;100.00
74242;BME280;62599;49.146;10.426;2023-10-19T08:09:02;94010.38;;;9.44;100.00
74242;BME280;62599;49.146;10.426;2023-10-19T08:11:30;94016.25;;;9.53;100.00
74242;BME280;62599;49.146;10.426;2023-10-19T08:13:56;94016.06;;;9.69;100.00
74242;BME280;62599;49.146;10.426;2023-10-19T08:16:22;94018.19;;;9.86;100.00
74242;BME280;62599;49.146;10.426;2023-10-19T08:18:49;94023.38;;;10.05;100.00
74242;BME280;62599;49.146;10.426;2023-10-19T08:21:14;94016.34;;;10.31;100.00
74242;BME280;62599;49.146;10.426;2023-10-19T08:23:39;94018.44;;;10.52;100.00
74242;BME280;62599;49.146;10.426;2023-10-19T08:26:05;94006.66;;;10.67;100.00
74242;BME280;62599;49.146;10.426;2023-10-19T08:28:31;94003.63;;;10.72;100.00
74242;BME280;62599;49.146;10.426;2023-10-19T08:30:57;93999.03;;;10.76;100.00
74242;BME280;62599;49.146;10.426;2023-10-19T08:33:26;94014.03;;;10.77;100.00
74242;BME280;62599;49.146;10.426;2023-10-19T08:35:52;94015.56;;;10.75;100.00
74242;BME280;62599;49.146;10.426;2023-10-19T08:38:19;94013.56;;;10.65;100.00
74242;BME280;62599;49.146;10.426;2023-10-19T08:40:44;94013.03;;;10.48;100.00
74242;BME280;62599;49.146;10.426;2023-10-19T08:43:11;94006.06;;;10.40;100.00
74242;BME280;62599;49.146;10.426;2023-10-19T08:45:39;94018.31;;;10.38;100.00
74242;BME280;62599;49.146;10.426;2023-10-19T08:48:05;94026.38;;;10.34;100.00
74242;BME280;62599;49.146;10.426;2023-10-19T08:50:34;94007.91;;;10.32;100.00
74242;BME280;62599;49.146;10.426;2023-10-19T08:53:05;94017.47;;;10.26;100.00
74242;BME280;62599;49.146;10.426;2023-10-19T08:55:31;94022.00;;;10.22;100.00
74242;BME280;62599;49.146;10.426;2023-10-19T08:57:59;94018.13;;;10.20;100.00
74242;BME280;62599;49.146;10.426;2023-10-19T09:00:26;94013.56;;;10.24;100.00
74242;BME280;62599;49.146;10.426;2023-10-19T09:02:54;93992.91;;;10.31;100.00
74242;BME280;62599;49.146;10.426;2023-10-19T09:05:22;93993.78;;;10.43;100.00
74242;BME280;62599;49.146;10.426;2023-10-19T09:07:53;93979.97;;;10.48;100.00
74242;BME280;62599;49.146;10.426;2023-10-19T09:10:22;93986.28;;;10.70;100.00
74242;BME280;62599;49.146;10.426;2023-10-19T09:13:08;93969.00;;;10.74;100.00
74242;BME280;62599;49.146;10.426;2023-10-19T09:15:38;93990.28;;;10.90;100.00
74242;BME280;62599;49.146;10.426;2023-10-19T09:18:19;93995.75;;;11.01;100.00
74242;BME280;62599;49.146;10.426;2023-10-19T09:20:50;93993.09;;;11.12;100.00
74242;BME280;62599;49.146;10.426;2023-10-19T09:23:20;93994.34;;;11.28;100.00
74242;BME280;62599;49.146;10.426;2023-10-19T09:25:47;93991.72;;;11.43;100.00
74242;BME280;62599;49.146;10.426;2023-10-19T09:28:12;93992.91;;;11.49;100.00
74242;BME280;62599;49.146;10.426;2023-10-19T09:30:40;93984.06;;;11.55;100.00
74242;BME280;62599;49.146;10.426;2023-10-19T09:33:05;93977.16;;;11.65;100.00
74242;BME280;62599;49.146;10.426;2023-10-19T09:35:34;93981.41;;;11.66;100.00
74242;BME280;62599;49.146;10.426;2023-10-19T09:37:59;93972.16;;;11.67;100.00
74242;BME280;62599;49.146;10.426;2023-10-19T09:40:26;93970.66;;;11.73;100.00
74242;BME280;62599;49.146;10.426;2023-10-19T09:42:56;93967.63;;;11.86;100.00
74242;BME280;62599;49.146;10.426;2023-10-19T09:45:25;93965.72;;;11.97;100.00
74242;BME280;62599;49.146;10.426;2023-10-19T09:47:54;93963.03;;;12.11;100.00
74242;BME280;62599;49.146;10.426;2023-10-19T09:50:20;93963.06;;;12.18;100.00
74242;BME280;62599;49.146;10.426;2023-10-19T09:52:46;93971.56;;;12.20;100.00
74242;BME280;62599;49.146;10.426;2023-10-19T09:57:55;93971.56;;;12.24;100.00
74242;BME280;62599;49.146;10.426;2023-10-19T10:00:21;93973.88;;;12.25;100.00
74242;BME280;62599;49.146;10.426;2023-10-19T10:02:51;93970.41;;;12.25;100.00
74242;BME280;62599;49.146;10.426;2023-10-19T10:10:42;93969.25;;;12.29;100.00
74242;BME280;62599;49.146;10.426;2023-10-19T10:15:57;93948.41;;;12.48;100.00
74242;BME280;62599;49.146;10.426;2023-10-19T10:18:30;93955.75;;;12.69;100.00
74242;BME280;62599;49.146;10.426;2023-10-19T10:21:05;93951.50;;;12.75;100.00
74242;BME280;62599;49.146;10.426;2023-10-19T10:23:48;93956.88;;;12.89;100.00
74242;BME280;62599;49.146;10.426;2023-10-19T10:26:16;93956.84;;;13.07;100.00
74242;BME280;62599;49.146;10.426;2023-10-19T10:29:09;93959.91;;;13.31;100.00
74242;BME280;62599;49.146;10.426;2023-10-19T10:31:44;93950.16;;;13.51;100.00
74242;BME280;62599;49.146;10.426;2023-10-19T10:34:12;93950.47;;;13.67;100.00
74242;BME280;62599;49.146;10.426;2023-10-19T10:37:04;93936.38;;;13.97;100.00
74242;BME280;62599;49.146;10.426;2023-10-19T10:39:31;93944.75;;;14.21;100.00
74242;BME280;62599;49.146;10.426;2023-10-19T10:41:57;93927.59;;;14.42;100.00
74242;BME280;62599;49.146;10.426;2023-10-19T10:44:46;93932.06;;;14.63;100.00
74242;BME280;62599;49.146;10.426;2023-10-19T10:47:19;93931.97;;;14.74;99.86
74242;BME280;62599;49.146;10.426;2023-10-19T10:49:54;93927.38;;;14.71;100.00
74242;BME280;62599;49.146;10.426;2023-10-19T10:54:50;93927.16;;;14.51;98.83
74242;BME280;62599;49.146;10.426;2023-10-19T10:57:15;93927.19;;;14.40;99.96
74242;BME280;62599;49.146;10.426;2023-10-19T10:59:41;93921.78;;;14.40;100.00
74242;BME280;62599;49.146;10.426;2023-10-19T11:02:19;93917.88;;;14.44;99.81
74242;BME280;62599;49.146;10.426;2023-10-19T11:04:48;93919.03;;;14.47;99.15
74242;BME280;62599;49.146;10.426;2023-10-19T11:07:22;93912.84;;;14.50;99.54
74242;BME280;62599;49.146;10.426;2023-10-19T11:09:49;93910.47;;;14.49;99.76
74242;BME280;62599;49.146;10.426;2023-10-19T11:12:14;93913.59;;;14.47;99.67
74242;BME280;62599;49.146;10.426;2023-10-19T11:14:54;93915.88;;;14.56;99.98
74242;BME280;62599;49.146;10.426;2023-10-19T11:17:20;93915.47;;;14.57;100.00
74242;BME280;62599;49.146;10.426;2023-10-19T11:19:53;93905.31;;;14.68;99.97
74242;BME280;62599;49.146;10.426;2023-10-19T11:22:21;93912.59;;;14.79;99.53
74242;BME280;62599;49.146;10.426;2023-10-19T11:24:47;93905.91;;;14.87;99.11
74242;BME280;62599;49.146;10.426;2023-10-19T11:27:12;93902.44;;;14.86;98.70
74242;BME280;62599;49.146;10.426;2023-10-19T11:29:37;93904.06;;;14.77;98.20
74242;BME280;62599;49.146;10.426;2023-10-19T11:32:03;93891.38;;;14.66;98.80
74242;BME280;62599;49.146;10.426;2023-10-19T11:34:29;93890.38;;;14.53;98.18
74242;BME280;62599;49.146;10.426;2023-10-19T11:36:58;93902.09;;;14.36;98.16
74242;BME280;62599;49.146;10.426;2023-10-19T11:39:25;93891.38;;;14.21;98.58
74242;BME280;62599;49.146;10.426;2023-10-19T11:41:51;93904.59;;;14.09;98.80
74242;BME280;62599;49.146;10.426;2023-10-19T11:44:16;93902.00;;;13.94;99.91
74242;BME280;62599;49.146;10.426;2023-10-19T11:46:41;93907.50;;;13.84;99.81
74242;BME280;62599;49.146;10.426;2023-10-19T11:49:07;93898.59;;;13.80;100.00
74242;BME280;62599;49.146;10.426;2023-10-19T11:51:34;93885.03;;;13.87;100.00
74242;BME280;62599;49.146;10.426;2023-10-19T11:53:59;93886.53;;;13.95;100.00
74242;BME280;62599;49.146;10.426;2023-10-19T11:56:25;93888.81;;;14.00;100.00
74242;BME280;62599;49.146;10.426;2023-10-19T11:58:50;93890.34;;;14.01;100.00
74242;BME280;62599;49.146;10.426;2023-10-19T12:01:16;93893.44;;;14.03;100.00
74242;BME280;62599;49.146;10.426;2023-10-19T12:03:44;93894.97;;;14.04;100.00
74242;BME280;62599;49.146;10.426;2023-10-19T12:06:13;93891.84;;;14.09;100.00
74242;BME280;62599;49.146;10.426;2023-10-19T12:08:48;93891.94;;;13.99;100.00
74242;BME280;62599;49.146;10.426;2023-10-19T12:11:13;93899.66;;;13.96;100.00
74242;BME280;62599;49.146;10.426;2023-10-19T12:13:44;93901.59;;;13.96;100.00
74242;BME280;62599;49.146;10.426;2023-10-19T12:16:10;93902.03;;;13.91;100.00
74242;BME280;62599;49.146;10.426;2023-10-19T12:18:38;93895.41;;;13.95;100.00
74242;BME280;62599;49.146;10.426;2023-10-19T12:21:04;93897.75;;;13.93;100.00
74242;BME280;62599;49.146;10.426;2023-10-19T12:23:33;93903.16;;;13.93;100.00
74242;BME280;62599;49.146;10.426;2023-10-19T12:25:58;93901.56;;;14.03;100.00
74242;BME280;62599;49.146;10.426;2023-10-19T12:28:27;93895.00;;;14.01;100.00
74242;BME280;62599;49.146;10.426;2023-10-19T12:30:55;93896.13;;;14.03;100.00
74242;BME280;62599;49.146;10.426;2023-10-19T12:33:21;93883.81;;;13.95;100.00
74242;BME280;62599;49.146;10.426;2023-10-19T12:35:47;93889.25;;;13.95;100.00
74242;BME280;62599;49.146;10.426;2023-10-19T12:38:23;93892.38;;;13.86;100.00
74242;BME280;62599;49.146;10.426;2023-10-19T12:40:50;93875.47;;;13.71;100.00
74242;BME280;62599;49.146;10.426;2023-10-19T12:43:19;93883.25;;;13.62;100.00
74242;BME280;62599;49.146;10.426;2023-10-19T12:45:47;93879.44;;;13.49;100.00
74242;BME280;62599;49.146;10.426;2023-10-19T12:48:16;93874.06;;;13.42;100.00
74242;BME280;62599;49.146;10.426;2023-10-19T12:50:42;93877.22;;;13.33;100.00
74242;BME280;62599;49.146;10.426;2023-10-19T12:53:08;93874.16;;;13.28;100.00
74242;BME280;62599;49.146;10.426;2023-10-19T12:55:34;93878.38;;;13.21;100.00
74242;BME280;62599;49.146;10.426;2023-10-19T12:58:29;93869.94;;;13.09;100.00
74242;BME280;62599;49.146;10.426;2023-10-19T13:01:29;93858.03;;;12.88;100.00
74242;BME280;62599;49.146;10.426;2023-10-19T13:03:59;93868.84;;;12.88;100.00
74242;BME280;62599;49.146;10.426;2023-10-19T13:06:25;93859.63;;;12.79;100.00
74242;BME280;62599;49.146;10.426;2023-10-19T13:08:57;93860.78;;;12.70;100.00
74242;BME280;62599;49.146;10.426;2023-10-19T13:11:23;93847.69;;;12.65;100.00
74242;BME280;62599;49.146;10.426;2023-10-19T13:13:57;93865.03;;;12.75;100.00
74242;BME280;62599;49.146;10.426;2023-10-19T13:16:28;93864.22;;;12.82;100.00
74242;BME280;62599;49.146;10.426;2023-10-19T13:18:54;93858.81;;;12.82;100.00